sensor_id;sensor_type;location;lat;lon;timestamp;P1;durP1;ratioP1;P2;durP2;ratioP2
12214;SDS011;6170;42.206;24.142;2023-08-06T00:00:58;1377.10;;;848.03;;
12214;SDS011;6170;42.206;24.142;2023-08-06T00:03:25;727.78;;;673.78;;
12214;SDS011;6170;42.206;24.142;2023-08-06T00:05:53;710.53;;;657.95;;
12214;SDS011;6170;42.206;24.142;2023-08-06T00:08:20;1022.75;;;734.25;;
12214;SDS011;6170;42.206;24.142;2023-08-06T00:10:47;1999.90;;;999.90;;
12214;SDS011;6170;42.206;24.142;2023-08-06T00:13:14;722.83;;;667.80;;
12214;SDS011;6170;42.206;24.142;2023-08-06T00:15:41;720.60;;;667.75;;
12214;SDS011;6170;42.206;24.142;2023-08-06T00:18:08;716.22;;;660.30;;
12214;SDS011;6170;42.206;24.142;2023-08-06T00:20:38;1363.85;;;835.70;;
12214;SDS011;6170;42.206;24.142;2023-08-06T00:23:07;712.42;;;657.75;;
12214;SDS011;6170;42.206;24.142;2023-08-06T00:25:34;730.50;;;674.85;;
12214;SDS011;6170;42.206;24.142;2023-08-06T00:28:01;1999.90;;;999.90;;
12214;SDS011;6170;42.206;24.142;2023-08-06T00:30:28;1999.90;;;999.90;;
12214;SDS011;6170;42.206;24.142;2023-08-06T00:32:55;1676.07;;;913.00;;
12214;SDS011;6170;42.206;24.142;2023-08-06T00:35:22;1999.90;;;999.90;;
12214;SDS011;6170;42.206;24.142;2023-08-06T00:37:49;1359.60;;;832.38;;
12214;SDS011;6170;42.206;24.142;2023-08-06T00:40:18;1999.90;;;999.90;;
12214;SDS011;6170;42.206;24.142;2023-08-06T00:42:47;1675.57;;;911.85;;
12214;SDS011;6170;42.206;24.142;2023-08-06T00:45:14;1347.53;;;820.70;;
12214;SDS011;6170;42.206;24.142;2023-08-06T00:47:41;1999.90;;;999.90;;
12214;SDS011;6170;42.206;24.142;2023-08-06T00:50:08;1999.90;;;999.90;;
12214;SDS011;6170;42.206;24.142;2023-08-06T00:52:35;1999.90;;;999.90;;
12214;SDS011;6170;42.206;24.142;2023-08-06T00:55:04;1999.90;;;999.90;;
12214;SDS011;6170;42.206;24.142;2023-08-06T00:57:33;1999.90;;;999.90;;
12214;SDS011;6170;42.206;24.142;2023-08-06T01:00:00;1679.32;;;915.55;;
12214;SDS011;6170;42.206;24.142;2023-08-06T01:02:29;1999.90;;;999.90;;
12214;SDS011;6170;42.206;24.142;2023-08-06T01:04:56;1999.90;;;999.90;;
12214;SDS011;6170;42.206;24.142;2023-08-06T01:07:28;1668.95;;;905.55;;
12214;SDS011;6170;42.206;24.142;2023-08-06T01:10:10;1999.90;;;999.90;;
12214;SDS011;6170;42.206;24.142;2023-08-06T01:15:19;1999.90;;;999.90;;
12214;SDS011;6170;42.206;24.142;2023-08-06T01:17:50;1999.90;;;999.90;;
12214;SDS011;6170;42.206;24.142;2023-08-06T01:20:17;1999.90;;;999.90;;
12214;SDS011;6170;42.206;24.142;2023-08-06T01:22:46;1999.90;;;999.90;;
12214;SDS011;6170;42.206;24.142;2023-08-06T01:25:13;1999.90;;;999.90;;
12214;SDS011;6170;42.206;24.142;2023-08-06T01:27:44;1999.90;;;999.90;;
12214;SDS011;6170;42.206;24.142;2023-08-06T01:30:15;1999.90;;;999.90;;
12214;SDS011;6170;42.206;24.142;2023-08-06T01:32:44;1999.90;;;999.90;;
12214;SDS011;6170;42.206;24.142;2023-08-06T01:35:15;1999.90;;;999.90;;
12214;SDS011;6170;42.206;24.142;2023-08-06T01:37:47;1999.90;;;999.90;;
12214;SDS011;6170;42.206;24.142;2023-08-06T01:40:14;1999.90;;;999.90;;
12214;SDS011;6170;42.206;24.142;2023-08-06T01:42:41;1999.90;;;999.90;;
12214;SDS011;6170;42.206;24.142;2023-08-06T01:45:09;1999.90;;;999.90;;
12214;SDS011;6170;42.206;24.142;2023-08-06T01:47:36;1999.90;;;999.90;;
12214;SDS011;6170;42.206;24.142;2023-08-06T01:50:04;1999.90;;;999.90;;
12214;SDS011;6170;42.206;24.142;2023-08-06T01:52:31;1999.90;;;999.90;;
12214;SDS011;6170;42.206;24.142;2023-08-06T01:55:00;1999.90;;;999.90;;
12214;SDS011;6170;42.206;24.142;2023-08-06T01:57:27;1999.90;;;999.90;;
12214;SDS011;6170;42.206;24.142;2023-08-06T01:59:54;1999.90;;;999.90;;
12214;SDS011;6170;42.206;24.142;2023-08-06T02:02:21;1999.90;;;999.90;;
12214;SDS011;6170;42.206;24.142;2023-08-06T02:04:48;1999.90;;;999.90;;
12214;SDS011;6170;42.206;24.142;2023-08-06T02:07:15;1999.90;;;999.90;;
12214;SDS011;6170;42.206;24.142;2023-08-06T02:09:41;1999.90;;;999.90;;
12214;SDS011;6170;42.206;24.142;2023-08-06T02:12:10;1999.90;;;999.90;;
12214;SDS011;6170;42.206;24.142;2023-08-06T02:14:37;1999.90;;;999.90;;
12214;SDS011;6170;42.206;24.142;2023-08-06T02:17:04;1999.90;;;999.90;;
12214;SDS011;6170;42.206;24.142;2023-08-06T02:19:31;1999.90;;;999.90;;
12214;SDS011;6170;42.206;24.142;2023-08-06T02:21:58;1999.90;;;999.90;;
12214;SDS011;6170;42.206;24.142;2023-08-06T02:24:25;1999.90;;;999.90;;
12214;SDS011;6170;42.206;24.142;2023-08-06T02:26:52;1999.90;;;999.90;;
12214;SDS011;6170;42.206;24.142;2023-08-06T02:29:22;1999.90;;;999.90;;
12214;SDS011;6170;42.206;24.142;2023-08-06T02:31:49;1999.90;;;999.90;;
12214;SDS011;6170;42.206;24.142;2023-08-06T02:34:16;1999.90;;;999.90;;
12214;SDS011;6170;42.206;24.142;2023-08-06T02:36:43;1999.90;;;999.90;;
12214;SDS011;6170;42.206;24.142;2023-08-06T02:39:10;1999.90;;;999.90;;
12214;SDS011;6170;42.206;24.142;2023-08-06T02:41:37;1999.90;;;999.90;;
12214;SDS011;6170;42.206;24.142;2023-08-06T02:44:04;1999.90;;;999.90;;
12214;SDS011;6170;42.206;24.142;2023-08-06T02:46:32;1999.90;;;999.90;;
12214;SDS011;6170;42.206;24.142;2023-08-06T02:48:59;1999.90;;;999.90;;
12214;SDS011;6170;42.206;24.142;2023-08-06T02:51:26;1999.90;;;999.90;;
12214;SDS011;6170;42.206;24.142;2023-08-06T02:53:53;1999.90;;;999.90;;
12214;SDS011;6170;42.206;24.142;2023-08-06T02:56:20;1999.90;;;999.90;;
12214;SDS011;6170;42.206;24.142;2023-08-06T02:58:47;1999.90;;;999.90;;
12214;SDS011;6170;42.206;24.142;2023-08-06T03:01:14;1999.90;;;999.90;;
12214;SDS011;6170;42.206;24.142;2023-08-06T03:03:43;1999.90;;;999.90;;
12214;SDS011;6170;42.206;24.142;2023-08-06T03:06:10;1999.90;;;999.90;;
12214;SDS011;6170;42.206;24.142;2023-08-06T03:08:37;1999.90;;;999.90;;
12214;SDS011;6170;42.206;24.142;2023-08-06T03:11:04;1999.90;;;999.90;;
12214;SDS011;6170;42.206;24.142;2023-08-06T03:13:31;1999.90;;;999.90;;
12214;SDS011;6170;42.206;24.142;2023-08-06T03:15:58;1999.90;;;999.90;;
12214;SDS011;6170;42.206;24.142;2023-08-06T03:18:26;1999.90;;;999.90;;
12214;SDS011;6170;42.206;24.142;2023-08-06T03:20:54;1999.90;;;999.90;;
12214;SDS011;6170;42.206;24.142;2023-08-06T03:23:22;1999.90;;;999.90;;
12214;SDS011;6170;42.206;24.142;2023-08-06T03:25:49;1999.90;;;999.90;;
12214;SDS011;6170;42.206;24.142;2023-08-06T03:28:16;1999.90;;;999.90;;
12214;SDS011;6170;42.206;24.142;2023-08-06T03:30:43;1999.90;;;999.90;;
12214;SDS011;6170;42.206;24.142;2023-08-06T03:33:10;1999.90;;;999.90;;
12214;SDS011;6170;42.206;24.142;2023-08-06T03:35:37;1999.90;;;999.90;;
12214;SDS011;6170;42.206;24.142;2023-08-06T03:38:05;1999.90;;;999.90;;
12214;SDS011;6170;42.206;24.142;2023-08-06T03:40:34;1999.90;;;999.90;;
12214;SDS011;6170;42.206;24.142;2023-08-06T03:43:01;1999.90;;;999.90;;
12214;SDS011;6170;42.206;24.142;2023-08-06T03:45:28;1999.90;;;999.90;;
12214;SDS011;6170;42.206;24.142;2023-08-06T03:47:55;1999.90;;;999.90;;
12214;SDS011;6170;42.206;24.142;2023-08-06T03:50:22;1999.90;;;999.90;;
12214;SDS011;6170;42.206;24.142;2023-08-06T03:52:49;1999.90;;;999.90;;
12214;SDS011;6170;42.206;24.142;2023-08-06T03:55:18;1999.90;;;999.90;;
12214;SDS011;6170;42.206;24.142;2023-08-06T03:57:44;1999.90;;;999.90;;
12214;SDS011;6170;42.206;24.142;2023-08-06T04:00:12;1999.90;;;999.90;;
12214;SDS011;6170;42.206;24.142;2023-08-06T04:02:39;1999.90;;;999.90;;
12214;SDS011;6170;42.206;24.142;2023-08-06T04:05:06;1999.90;;;999.90;;
12214;SDS011;6170;42.206;24.142;2023-08-06T04:07:34;1999.90;;;999.90;;
12214;SDS011;6170;42.206;24.142;2023-08-06T04:10:02;1999.90;;;999.90;;
12214;SDS011;6170;42.206;24.142;2023-08-06T04:12:32;1999.90;;;999.90;;
12214;SDS011;6170;42.206;24.142;2023-08-06T04:15:01;1999.90;;;999.90;;
12214;SDS011;6170;42.206;24.142;2023-08-06T04:17:29;1999.90;;;999.90;;
12214;SDS011;6170;42.206;24.142;2023-08-06T04:19:56;1999.90;;;999.90;;
12214;SDS011;6170;42.206;24.142;2023-08-06T04:22:24;1999.90;;;999.90;;
12214;SDS011;6170;42.206;24.142;2023-08-06T04:24:51;1999.90;;;999.90;;
12214;SDS011;6170;42.206;24.142;2023-08-06T04:27:18;1999.90;;;999.90;;
12214;SDS011;6170;42.206;24.142;2023-08-06T04:29:47;1999.90;;;999.90;;
12214;SDS011;6170;42.206;24.142;2023-08-06T04:32:14;1999.90;;;999.90;;
12214;SDS011;6170;42.206;24.142;2023-08-06T04:34:42;1999.90;;;999.90;;
12214;SDS011;6170;42.206;24.142;2023-08-06T04:37:09;1999.90;;;999.90;;
12214;SDS011;6170;42.206;24.142;2023-08-06T04:39:36;1999.90;;;999.90;;
12214;SDS011;6170;42.206;24.142;2023-08-06T04:42:03;1999.90;;;999.90;;
12214;SDS011;6170;42.206;24.142;2023-08-06T04:44:31;1999.90;;;999.90;;
12214;SDS011;6170;42.206;24.142;2023-08-06T04:47:00;1999.90;;;999.90;;
12214;SDS011;6170;42.206;24.142;2023-08-06T04:49:26;1999.90;;;999.90;;
12214;SDS011;6170;42.206;24.142;2023-08-06T04:51:54;1999.90;;;999.90;;
12214;SDS011;6170;42.206;24.142;2023-08-06T04:54:20;1999.90;;;999.90;;
12214;SDS011;6170;42.206;24.142;2023-08-06T04:56:47;1999.90;;;999.90;;
12214;SDS011;6170;42.206;24.142;2023-08-06T04:59:14;1999.90;;;999.90;;
12214;SDS011;6170;42.206;24.142;2023-08-06T05:01:41;1999.90;;;999.90;;
12214;SDS011;6170;42.206;24.142;2023-08-06T05:04:10;1999.90;;;999.90;;
12214;SDS011;6170;42.206;24.142;2023-08-06T05:06:37;1999.90;;;999.90;;
12214;SDS011;6170;42.206;24.142;2023-08-06T05:09:05;1999.90;;;999.90;;
12214;SDS011;6170;42.206;24.142;2023-08-06T05:11:32;1999.90;;;999.90;;
12214;SDS011;6170;42.206;24.142;2023-08-06T05:13:59;1999.90;;;999.90;;
12214;SDS011;6170;42.206;24.142;2023-08-06T05:16:26;1999.90;;;999.90;;
12214;SDS011;6170;42.206;24.142;2023-08-06T05:18:53;1999.90;;;999.90;;
12214;SDS011;6170;42.206;24.142;2023-08-06T05:21:21;1999.90;;;999.90;;
12214;SDS011;6170;42.206;24.142;2023-08-06T05:23:48;1999.90;;;999.90;;
12214;SDS011;6170;42.206;24.142;2023-08-06T05:26:15;1999.90;;;999.90;;
12214;SDS011;6170;42.206;24.142;2023-08-06T05:28:44;1999.90;;;999.90;;
12214;SDS011;6170;42.206;24.142;2023-08-06T05:31:11;1999.90;;;999.90;;
12214;SDS011;6170;42.206;24.142;2023-08-06T05:33:38;1999.90;;;999.90;;
12214;SDS011;6170;42.206;24.142;2023-08-06T05:36:05;1999.90;;;999.90;;
12214;SDS011;6170;42.206;24.142;2023-08-06T05:38:34;1999.90;;;999.90;;
12214;SDS011;6170;42.206;24.142;2023-08-06T05:41:01;1999.90;;;999.90;;
12214;SDS011;6170;42.206;24.142;2023-08-06T05:43:28;1999.90;;;999.90;;
12214;SDS011;6170;42.206;24.142;2023-08-06T05:45:55;1999.90;;;999.90;;
12214;SDS011;6170;42.206;24.142;2023-08-06T05:48:22;1999.90;;;999.90;;
12214;SDS011;6170;42.206;24.142;2023-08-06T05:50:50;1999.90;;;999.90;;
12214;SDS011;6170;42.206;24.142;2023-08-06T05:53:17;1999.90;;;999.90;;
12214;SDS011;6170;42.206;24.142;2023-08-06T05:55:46;1999.90;;;999.90;;
12214;SDS011;6170;42.206;24.142;2023-08-06T05:58:13;1999.90;;;999.90;;
12214;SDS011;6170;42.206;24.142;2023-08-06T06:00:40;1999.90;;;999.90;;
12214;SDS011;6170;42.206;24.142;2023-08-06T06:03:07;1999.90;;;999.90;;
12214;SDS011;6170;42.206;24.142;2023-08-06T06:05:34;1999.90;;;999.90;;
12214;SDS011;6170;42.206;24.142;2023-08-06T06:08:04;1999.90;;;999.90;;
12214;SDS011;6170;42.206;24.142;2023-08-06T06:10:31;1999.90;;;999.90;;
12214;SDS011;6170;42.206;24.142;2023-08-06T06:12:59;1999.90;;;999.90;;
12214;SDS011;6170;42.206;24.142;2023-08-06T06:15:26;1999.90;;;999.90;;
12214;SDS011;6170;42.206;24.142;2023-08-06T06:17:53;1999.90;;;999.90;;
12214;SDS011;6170;42.206;24.142;2023-08-06T06:20:20;1999.90;;;999.90;;
12214;SDS011;6170;42.206;24.142;2023-08-06T06:22:47;1999.90;;;999.90;;
12214;SDS011;6170;42.206;24.142;2023-08-06T06:25:14;1999.90;;;999.90;;
12214;SDS011;6170;42.206;24.142;2023-08-06T06:27:41;1999.90;;;999.90;;
12214;SDS011;6170;42.206;24.142;2023-08-06T06:30:10;1999.90;;;999.90;;
12214;SDS011;6170;42.206;24.142;2023-08-06T06:32:38;1999.90;;;999.90;;
12214;SDS011;6170;42.206;24.142;2023-08-06T06:35:06;1999.90;;;999.90;;
12214;SDS011;6170;42.206;24.142;2023-08-06T06:37:34;1999.90;;;999.90;;
12214;SDS011;6170;42.206;24.142;2023-08-06T06:40:01;1999.90;;;999.90;;
12214;SDS011;6170;42.206;24.142;2023-08-06T06:42:28;1999.90;;;999.90;;
12214;SDS011;6170;42.206;24.142;2023-08-06T06:44:55;1999.90;;;999.90;;
12214;SDS011;6170;42.206;24.142;2023-08-06T06:47:24;1999.90;;;999.90;;
12214;SDS011;6170;42.206;24.142;2023-08-06T06:49:51;1369.43;;;838.47;;
12214;SDS011;6170;42.206;24.142;2023-08-06T06:52:18;1999.90;;;999.90;;
12214;SDS011;6170;42.206;24.142;2023-08-06T06:54:45;1999.90;;;999.90;;
12214;SDS011;6170;42.206;24.142;2023-08-06T06:57:12;1999.90;;;999.90;;
12214;SDS011;6170;42.206;24.142;2023-08-06T06:59:39;1999.90;;;999.90;;
12214;SDS011;6170;42.206;24.142;2023-08-06T07:02:06;789.58;;;725.00;;
12214;SDS011;6170;42.206;24.142;2023-08-06T07:04:34;813.38;;;746.30;;
12214;SDS011;6170;42.206;24.142;2023-08-06T07:07:01;797.38;;;729.38;;
12214;SDS011;6170;42.206;24.142;2023-08-06T07:09:28;795.92;;;727.70;;
12214;SDS011;6170;42.206;24.142;2023-08-06T07:11:55;796.65;;;729.28;;
12214;SDS011;6170;42.206;24.142;2023-08-06T07:14:24;807.58;;;737.47;;
12214;SDS011;6170;42.206;24.142;2023-08-06T07:16:52;780.83;;;714.50;;
12214;SDS011;6170;42.206;24.142;2023-08-06T07:19:19;795.05;;;726.33;;
12214;SDS011;6170;42.206;24.142;2023-08-06T07:21:47;796.05;;;727.33;;
12214;SDS011;6170;42.206;24.142;2023-08-06T07:24:14;1084.38;;;784.13;;
12214;SDS011;6170;42.206;24.142;2023-08-06T07:26:41;1393.63;;;860.40;;
12214;SDS011;6170;42.206;24.142;2023-08-06T07:29:08;1999.90;;;999.90;;
12214;SDS011;6170;42.206;24.142;2023-08-06T07:31:35;1999.90;;;999.90;;
12214;SDS011;6170;42.206;24.142;2023-08-06T07:34:02;1999.90;;;999.90;;
12214;SDS011;6170;42.206;24.142;2023-08-06T07:36:29;1999.90;;;999.90;;
12214;SDS011;6170;42.206;24.142;2023-08-06T07:38:58;1999.90;;;999.90;;
12214;SDS011;6170;42.206;24.142;2023-08-06T07:41:25;1999.90;;;999.90;;
12214;SDS011;6170;42.206;24.142;2023-08-06T07:43:52;795.75;;;728.30;;
12214;SDS011;6170;42.206;24.142;2023-08-06T07:46:19;770.38;;;703.78;;
12214;SDS011;6170;42.206;24.142;2023-08-06T07:48:46;770.53;;;704.92;;
12214;SDS011;6170;42.206;24.142;2023-08-06T07:51:13;762.47;;;697.35;;
12214;SDS011;6170;42.206;24.142;2023-08-06T07:53:40;797.00;;;729.08;;
12214;SDS011;6170;42.206;24.142;2023-08-06T07:56:08;807.42;;;737.92;;
12214;SDS011;6170;42.206;24.142;2023-08-06T07:58:35;807.50;;;740.15;;
12214;SDS011;6170;42.206;24.142;2023-08-06T08:01:02;814.03;;;744.50;;
12214;SDS011;6170;42.206;24.142;2023-08-06T08:03:29;794.78;;;723.67;;
12214;SDS011;6170;42.206;24.142;2023-08-06T08:05:56;794.05;;;726.30;;
12214;SDS011;6170;42.206;24.142;2023-08-06T08:08:24;784.05;;;717.53;;
12214;SDS011;6170;42.206;24.142;2023-08-06T08:10:51;774.15;;;708.17;;
12214;SDS011;6170;42.206;24.142;2023-08-06T08:13:19;789.00;;;721.03;;
12214;SDS011;6170;42.206;24.142;2023-08-06T08:15:46;792.80;;;724.58;;
12214;SDS011;6170;42.206;24.142;2023-08-06T08:18:13;783.10;;;715.90;;
12214;SDS011;6170;42.206;24.142;2023-08-06T08:20:41;780.25;;;713.85;;
12214;SDS011;6170;42.206;24.142;2023-08-06T08:23:07;794.55;;;728.33;;
12214;SDS011;6170;42.206;24.142;2023-08-06T08:25:34;759.90;;;698.05;;
12214;SDS011;6170;42.206;24.142;2023-08-06T08:28:01;770.75;;;705.47;;
12214;SDS011;6170;42.206;24.142;2023-08-06T08:30:30;764.88;;;700.80;;
12214;SDS011;6170;42.206;24.142;2023-08-06T08:32:57;778.47;;;713.03;;
12214;SDS011;6170;42.206;24.142;2023-08-06T08:35:24;787.50;;;722.13;;
12214;SDS011;6170;42.206;24.142;2023-08-06T08:37:51;793.78;;;727.65;;
12214;SDS011;6170;42.206;24.142;2023-08-06T08:40:18;793.88;;;727.00;;
12214;SDS011;6170;42.206;24.142;2023-08-06T08:42:45;766.17;;;701.78;;
12214;SDS011;6170;42.206;24.142;2023-08-06T08:45:13;751.72;;;689.10;;
12214;SDS011;6170;42.206;24.142;2023-08-06T08:47:42;792.53;;;724.30;;
12214;SDS011;6170;42.206;24.142;2023-08-06T08:50:10;774.25;;;709.97;;
12214;SDS011;6170;42.206;24.142;2023-08-06T08:52:39;786.22;;;720.30;;
12214;SDS011;6170;42.206;24.142;2023-08-06T08:55:07;778.60;;;712.47;;
12214;SDS011;6170;42.206;24.142;2023-08-06T08:57:34;767.90;;;703.38;;
12214;SDS011;6170;42.206;24.142;2023-08-06T09:00:02;788.95;;;722.67;;
12214;SDS011;6170;42.206;24.142;2023-08-06T09:02:30;791.83;;;724.70;;
12214;SDS011;6170;42.206;24.142;2023-08-06T09:05:00;782.22;;;716.97;;
12214;SDS011;6170;42.206;24.142;2023-08-06T09:07:31;780.00;;;715.13;;
12214;SDS011;6170;42.206;24.142;2023-08-06T09:10:02;762.67;;;698.15;;
12214;SDS011;6170;42.206;24.142;2023-08-06T09:12:30;755.15;;;690.42;;
12214;SDS011;6170;42.206;24.142;2023-08-06T09:14:57;767.20;;;701.15;;
12214;SDS011;6170;42.206;24.142;2023-08-06T09:17:25;748.97;;;684.30;;
12214;SDS011;6170;42.206;24.142;2023-08-06T09:19:53;754.80;;;688.90;;
12214;SDS011;6170;42.206;24.142;2023-08-06T09:22:22;759.88;;;694.60;;
12214;SDS011;6170;42.206;24.142;2023-08-06T09:24:49;759.50;;;694.50;;
12214;SDS011;6170;42.206;24.142;2023-08-06T09:27:16;760.00;;;694.55;;
12214;SDS011;6170;42.206;24.142;2023-08-06T09:29:44;778.88;;;712.75;;
12214;SDS011;6170;42.206;24.142;2023-08-06T09:32:11;753.85;;;690.75;;
12214;SDS011;6170;42.206;24.142;2023-08-06T09:34:39;756.83;;;694.22;;
12214;SDS011;6170;42.206;24.142;2023-08-06T09:37:08;754.88;;;693.33;;
12214;SDS011;6170;42.206;24.142;2023-08-06T09:39:38;773.92;;;710.70;;
12214;SDS011;6170;42.206;24.142;2023-08-06T09:42:05;769.05;;;704.80;;
12214;SDS011;6170;42.206;24.142;2023-08-06T09:44:33;759.08;;;695.80;;
12214;SDS011;6170;42.206;24.142;2023-08-06T09:47:01;732.85;;;671.72;;
12214;SDS011;6170;42.206;24.142;2023-08-06T09:49:40;752.72;;;690.60;;
12214;SDS011;6170;42.206;24.142;2023-08-06T09:52:11;743.85;;;682.63;;
12214;SDS011;6170;42.206;24.142;2023-08-06T09:54:40;731.97;;;671.63;;
12214;SDS011;6170;42.206;24.142;2023-08-06T09:57:08;758.33;;;698.17;;
12214;SDS011;6170;42.206;24.142;2023-08-06T09:59:38;753.63;;;693.60;;
12214;SDS011;6170;42.206;24.142;2023-08-06T10:02:07;762.58;;;701.00;;
12214;SDS011;6170;42.206;24.142;2023-08-06T10:04:39;753.45;;;693.03;;
12214;SDS011;6170;42.206;24.142;2023-08-06T10:07:06;761.20;;;699.95;;
12214;SDS011;6170;42.206;24.142;2023-08-06T10:09:33;732.00;;;671.17;;
12214;SDS011;6170;42.206;24.142;2023-08-06T10:12:02;741.83;;;682.20;;
12214;SDS011;6170;42.206;24.142;2023-08-06T10:14:30;750.65;;;690.08;;
12214;SDS011;6170;42.206;24.142;2023-08-06T10:16:59;754.55;;;695.03;;
12214;SDS011;6170;42.206;24.142;2023-08-06T10:19:27;752.58;;;692.72;;
12214;SDS011;6170;42.206;24.142;2023-08-06T10:22:08;751.15;;;691.40;;
12214;SDS011;6170;42.206;24.142;2023-08-06T10:24:48;754.33;;;692.80;;
12214;SDS011;6170;42.206;24.142;2023-08-06T10:27:22;733.45;;;672.22;;
12214;SDS011;6170;42.206;24.142;2023-08-06T10:29:54;747.80;;;685.67;;
12214;SDS011;6170;42.206;24.142;2023-08-06T10:32:21;741.78;;;679.55;;
12214;SDS011;6170;42.206;24.142;2023-08-06T10:35:10;742.17;;;680.78;;
12214;SDS011;6170;42.206;24.142;2023-08-06T10:37:57;734.15;;;673.53;;
12214;SDS011;6170;42.206;24.142;2023-08-06T10:40:25;766.90;;;702.95;;
12214;SDS011;6170;42.206;24.142;2023-08-06T10:42:53;751.83;;;688.88;;
12214;SDS011;6170;42.206;24.142;2023-08-06T10:45:20;749.35;;;686.53;;
12214;SDS011;6170;42.206;24.142;2023-08-06T10:47:53;753.15;;;690.03;;
12214;SDS011;6170;42.206;24.142;2023-08-06T10:50:20;738.67;;;675.13;;
12214;SDS011;6170;42.206;24.142;2023-08-06T10:52:48;773.30;;;707.20;;
12214;SDS011;6170;42.206;24.142;2023-08-06T10:55:21;777.72;;;711.53;;
12214;SDS011;6170;42.206;24.142;2023-08-06T10:57:49;751.42;;;688.05;;
12214;SDS011;6170;42.206;24.142;2023-08-06T11:00:18;751.45;;;689.47;;
12214;SDS011;6170;42.206;24.142;2023-08-06T11:02:47;756.65;;;694.47;;
12214;SDS011;6170;42.206;24.142;2023-08-06T11:05:14;764.78;;;702.83;;
12214;SDS011;6170;42.206;24.142;2023-08-06T11:07:41;735.20;;;676.50;;
12214;SDS011;6170;42.206;24.142;2023-08-06T11:10:09;758.28;;;697.15;;
12214;SDS011;6170;42.206;24.142;2023-08-06T11:12:38;756.42;;;696.05;;
12214;SDS011;6170;42.206;24.142;2023-08-06T11:15:06;772.10;;;710.53;;
12214;SDS011;6170;42.206;24.142;2023-08-06T11:17:35;764.67;;;703.85;;
12214;SDS011;6170;42.206;24.142;2023-08-06T11:20:03;734.25;;;674.67;;
12214;SDS011;6170;42.206;24.142;2023-08-06T11:22:31;758.67;;;698.70;;
12214;SDS011;6170;42.206;24.142;2023-08-06T11:24:58;752.28;;;691.90;;
12214;SDS011;6170;42.206;24.142;2023-08-06T11:27:27;750.63;;;688.95;;
12214;SDS011;6170;42.206;24.142;2023-08-06T11:29:54;763.65;;;702.03;;
12214;SDS011;6170;42.206;24.142;2023-08-06T11:32:21;755.10;;;693.28;;
12214;SDS011;6170;42.206;24.142;2023-08-06T11:34:50;754.40;;;692.47;;
12214;SDS011;6170;42.206;24.142;2023-08-06T11:37:20;749.65;;;687.70;;
12214;SDS011;6170;42.206;24.142;2023-08-06T11:39:49;747.55;;;685.13;;
12214;SDS011;6170;42.206;24.142;2023-08-06T11:42:16;751.00;;;686.60;;
12214;SDS011;6170;42.206;24.142;2023-08-06T11:44:44;769.08;;;702.10;;
12214;SDS011;6170;42.206;24.142;2023-08-06T11:47:15;748.92;;;683.95;;
12214;SDS011;6170;42.206;24.142;2023-08-06T11:49:44;755.85;;;690.03;;
12214;SDS011;6170;42.206;24.142;2023-08-06T11:52:17;774.88;;;708.03;;
12214;SDS011;6170;42.206;24.142;2023-08-06T11:54:46;732.50;;;668.00;;
12214;SDS011;6170;42.206;24.142;2023-08-06T11:57:13;728.65;;;664.83;;
12214;SDS011;6170;42.206;24.142;2023-08-06T11:59:42;745.13;;;679.63;;
12214;SDS011;6170;42.206;24.142;2023-08-06T12:02:09;746.90;;;680.60;;
12214;SDS011;6170;42.206;24.142;2023-08-06T12:07:32;733.58;;;668.85;;
12214;SDS011;6170;42.206;24.142;2023-08-06T12:10:03;748.53;;;682.25;;
12214;SDS011;6170;42.206;24.142;2023-08-06T12:12:31;744.25;;;677.72;;
12214;SDS011;6170;42.206;24.142;2023-08-06T12:14:58;760.70;;;693.08;;
12214;SDS011;6170;42.206;24.142;2023-08-06T12:17:25;749.78;;;682.42;;
12214;SDS011;6170;42.206;24.142;2023-08-06T12:19:52;738.78;;;672.33;;
12214;SDS011;6170;42.206;24.142;2023-08-06T12:22:19;761.47;;;694.45;;
12214;SDS011;6170;42.206;24.142;2023-08-06T12:24:47;751.05;;;684.35;;
12214;SDS011;6170;42.206;24.142;2023-08-06T12:27:14;751.53;;;684.25;;
12214;SDS011;6170;42.206;24.142;2023-08-06T12:29:42;760.47;;;693.55;;
12214;SDS011;6170;42.206;24.142;2023-08-06T12:32:09;747.92;;;680.88;;
12214;SDS011;6170;42.206;24.142;2023-08-06T12:34:37;735.85;;;669.17;;
12214;SDS011;6170;42.206;24.142;2023-08-06T12:37:05;760.47;;;692.95;;
12214;SDS011;6170;42.206;24.142;2023-08-06T12:39:32;749.28;;;681.05;;
12214;SDS011;6170;42.206;24.142;2023-08-06T12:42:00;751.40;;;687.42;;
12214;SDS011;6170;42.206;24.142;2023-08-06T12:44:28;756.97;;;690.80;;
12214;SDS011;6170;42.206;24.142;2023-08-06T12:46:55;751.88;;;688.47;;
12214;SDS011;6170;42.206;24.142;2023-08-06T12:49:22;744.42;;;681.85;;
12214;SDS011;6170;42.206;24.142;2023-08-06T12:51:51;765.30;;;700.97;;
12214;SDS011;6170;42.206;24.142;2023-08-06T12:54:19;739.72;;;676.90;;
12214;SDS011;6170;42.206;24.142;2023-08-06T12:56:47;761.47;;;696.42;;
12214;SDS011;6170;42.206;24.142;2023-08-06T12:59:17;759.17;;;696.13;;
12214;SDS011;6170;42.206;24.142;2023-08-06T13:01:44;739.58;;;676.95;;
12214;SDS011;6170;42.206;24.142;2023-08-06T13:04:11;748.35;;;684.83;;
12214;SDS011;6170;42.206;24.142;2023-08-06T13:06:39;753.38;;;688.88;;
12214;SDS011;6170;42.206;24.142;2023-08-06T13:09:06;762.63;;;698.38;;
12214;SDS011;6170;42.206;24.142;2023-08-06T13:11:33;752.72;;;690.05;;
12214;SDS011;6170;42.206;24.142;2023-08-06T13:14:03;721.97;;;662.15;;
12214;SDS011;6170;42.206;24.142;2023-08-06T13:16:33;745.55;;;684.78;;
12214;SDS011;6170;42.206;24.142;2023-08-06T13:19:00;744.40;;;684.13;;
12214;SDS011;6170;42.206;24.142;2023-08-06T13:21:31;756.30;;;694.33;;
12214;SDS011;6170;42.206;24.142;2023-08-06T13:23:59;753.67;;;690.00;;
12214;SDS011;6170;42.206;24.142;2023-08-06T13:26:27;742.42;;;680.47;;
12214;SDS011;6170;42.206;24.142;2023-08-06T13:28:54;761.65;;;699.92;;
12214;SDS011;6170;42.206;24.142;2023-08-06T13:31:23;738.75;;;677.38;;
12214;SDS011;6170;42.206;24.142;2023-08-06T13:33:51;741.78;;;682.55;;
12214;SDS011;6170;42.206;24.142;2023-08-06T13:36:20;749.38;;;687.63;;
12214;SDS011;6170;42.206;24.142;2023-08-06T13:38:47;752.03;;;690.33;;
12214;SDS011;6170;42.206;24.142;2023-08-06T13:41:14;739.50;;;676.65;;
12214;SDS011;6170;42.206;24.142;2023-08-06T13:43:42;729.65;;;667.78;;
12214;SDS011;6170;42.206;24.142;2023-08-06T13:46:10;718.88;;;657.75;;
12214;SDS011;6170;42.206;24.142;2023-08-06T13:48:41;764.60;;;699.73;;
12214;SDS011;6170;42.206;24.142;2023-08-06T13:51:10;742.53;;;678.83;;
12214;SDS011;6170;42.206;24.142;2023-08-06T13:53:37;768.95;;;702.25;;
12214;SDS011;6170;42.206;24.142;2023-08-06T13:56:04;748.58;;;682.58;;
12214;SDS011;6170;42.206;24.142;2023-08-06T13:58:32;729.03;;;665.28;;
12214;SDS011;6170;42.206;24.142;2023-08-06T14:00:59;747.83;;;683.22;;